sim
Sign-in with your pilot id or email,
or register
Callsign
Passwort

Schedule Details

Flight Number: DLH415 (2)
Departure: Washington Dulles International Airport (KIAD) at 03:25
Arrival: Munich Airport (EDDM) at 11:40
Route: Lufthansa Passenger Schedule. Enter filed route here before submitting Pirep.

Weather Information
Getting current METAR information for KIAD 261852Z 34006KT 10SM SCT013 BKN035 BKN250 22/17 A3001 RMK AO2 RAB01E10 SLP160 P0000 T02220172 $
Getting current METAR information for EDDM 261850Z 24019KT 9999 -RA SCT023 BKN033 07/04 Q1001 NOSIG

Schedule Frequency

Route Map